sensor_id;sensor_type;location;lat;lon;timestamp;P1;durP1;ratioP1;P2;durP2;ratioP2
46751;SDS011;32497;48.936;9.270;2022-10-31T00:02:58;3.67;;;1.70;;
46751;SDS011;32497;48.936;9.270;2022-10-31T00:07:59;3.30;;;1.67;;
46751;SDS011;32497;48.936;9.270;2022-10-31T00:13:00;3.17;;;1.83;;
46751;SDS011;32497;48.936;9.270;2022-10-31T00:18:02;3.63;;;2.10;;
46751;SDS011;32497;48.936;9.270;2022-10-31T00:23:04;1.93;;;1.43;;
46751;SDS011;32497;48.936;9.270;2022-10-31T00:28:07;4.03;;;2.50;;
46751;SDS011;32497;48.936;9.270;2022-10-31T00:33:12;4.57;;;1.97;;
46751;SDS011;32497;48.936;9.270;2022-10-31T00:38:13;4.67;;;1.67;;
46751;SDS011;32497;48.936;9.270;2022-10-31T00:43:14;7.50;;;1.80;;
46751;SDS011;32497;48.936;9.270;2022-10-31T00:48:16;3.10;;;1.40;;
46751;SDS011;32497;48.936;9.270;2022-10-31T00:53:17;3.87;;;1.60;;
46751;SDS011;32497;48.936;9.270;2022-10-31T00:58:18;4.70;;;1.83;;
46751;SDS011;32497;48.936;9.270;2022-10-31T01:03:21;3.77;;;1.57;;
46751;SDS011;32497;48.936;9.270;2022-10-31T01:08:22;2.87;;;1.53;;
46751;SDS011;32497;48.936;9.270;2022-10-31T01:13:24;3.60;;;1.70;;
46751;SDS011;32497;48.936;9.270;2022-10-31T01:18:26;3.23;;;1.90;;
46751;SDS011;32497;48.936;9.270;2022-10-31T01:23:28;5.13;;;1.60;;
46751;SDS011;32497;48.936;9.270;2022-10-31T01:28:29;6.83;;;1.70;;
46751;SDS011;32497;48.936;9.270;2022-10-31T01:33:32;2.00;;;1.30;;
46751;SDS011;32497;48.936;9.270;2022-10-31T01:38:33;1.63;;;1.27;;
46751;SDS011;32497;48.936;9.270;2022-10-31T01:43:45;8.07;;;1.93;;
46751;SDS011;32497;48.936;9.270;2022-10-31T01:48:49;2.73;;;1.83;;
46751;SDS011;32497;48.936;9.270;2022-10-31T01:53:53;2.30;;;1.03;;
46751;SDS011;32497;48.936;9.270;2022-10-31T01:58:58;2.73;;;1.57;;
46751;SDS011;32497;48.936;9.270;2022-10-31T02:04:02;3.53;;;1.40;;
46751;SDS011;32497;48.936;9.270;2022-10-31T02:09:04;1.77;;;1.00;;
46751;SDS011;32497;48.936;9.270;2022-10-31T02:14:06;4.13;;;1.60;;
46751;SDS011;32497;48.936;9.270;2022-10-31T02:19:08;4.93;;;1.37;;
46751;SDS011;32497;48.936;9.270;2022-10-31T02:24:32;4.40;;;1.57;;
46751;SDS011;32497;48.936;9.270;2022-10-31T02:30:02;2.93;;;1.57;;
46751;SDS011;32497;48.936;9.270;2022-10-31T02:35:13;4.17;;;1.73;;
46751;SDS011;32497;48.936;9.270;2022-10-31T02:40:25;7.70;;;1.97;;
46751;SDS011;32497;48.936;9.270;2022-10-31T02:45:45;2.27;;;1.40;;
46751;SDS011;32497;48.936;9.270;2022-10-31T02:50:52;2.37;;;1.37;;
46751;SDS011;32497;48.936;9.270;2022-10-31T02:55:58;4.93;;;1.53;;
46751;SDS011;32497;48.936;9.270;2022-10-31T03:06:38;3.27;;;1.53;;
46751;SDS011;32497;48.936;9.270;2022-10-31T03:11:45;1.23;;;1.03;;
46751;SDS011;32497;48.936;9.270;2022-10-31T03:16:55;3.73;;;2.03;;
46751;SDS011;32497;48.936;9.270;2022-10-31T03:22:01;2.77;;;1.33;;
46751;SDS011;32497;48.936;9.270;2022-10-31T03:27:08;2.73;;;1.60;;
46751;SDS011;32497;48.936;9.270;2022-10-31T03:32:15;2.23;;;1.33;;
46751;SDS011;32497;48.936;9.270;2022-10-31T03:37:21;2.57;;;1.37;;
46751;SDS011;32497;48.936;9.270;2022-10-31T03:42:27;2.60;;;1.00;;
46751;SDS011;32497;48.936;9.270;2022-10-31T03:47:31;2.27;;;1.23;;
46751;SDS011;32497;48.936;9.270;2022-10-31T03:52:36;2.13;;;1.20;;
46751;SDS011;32497;48.936;9.270;2022-10-31T04:02:47;2.90;;;1.40;;
46751;SDS011;32497;48.936;9.270;2022-10-31T04:07:55;2.77;;;1.67;;
46751;SDS011;32497;48.936;9.270;2022-10-31T04:13:01;2.57;;;1.40;;
46751;SDS011;32497;48.936;9.270;2022-10-31T04:18:32;3.37;;;1.50;;
46751;SDS011;32497;48.936;9.270;2022-10-31T04:23:36;2.53;;;1.10;;
46751;SDS011;32497;48.936;9.270;2022-10-31T04:28:45;3.73;;;1.83;;
46751;SDS011;32497;48.936;9.270;2022-10-31T04:33:47;1.70;;;0.93;;
46751;SDS011;32497;48.936;9.270;2022-10-31T04:38:49;3.10;;;1.50;;
46751;SDS011;32497;48.936;9.270;2022-10-31T04:44:09;6.93;;;1.77;;
46751;SDS011;32497;48.936;9.270;2022-10-31T04:49:10;2.20;;;1.30;;
46751;SDS011;32497;48.936;9.270;2022-10-31T04:54:12;2.47;;;1.80;;
46751;SDS011;32497;48.936;9.270;2022-10-31T04:59:28;1.77;;;1.13;;
46751;SDS011;32497;48.936;9.270;2022-10-31T05:04:29;2.13;;;1.10;;
46751;SDS011;32497;48.936;9.270;2022-10-31T05:09:33;3.23;;;1.30;;
46751;SDS011;32497;48.936;9.270;2022-10-31T05:14:34;2.87;;;1.23;;
46751;SDS011;32497;48.936;9.270;2022-10-31T05:20:04;1.37;;;0.80;;
46751;SDS011;32497;48.936;9.270;2022-10-31T05:25:23;3.03;;;1.30;;
46751;SDS011;32497;48.936;9.270;2022-10-31T05:30:25;3.63;;;1.27;;
46751;SDS011;32497;48.936;9.270;2022-10-31T05:35:29;2.37;;;1.23;;
46751;SDS011;32497;48.936;9.270;2022-10-31T05:40:57;1.20;;;0.70;;
46751;SDS011;32497;48.936;9.270;2022-10-31T05:45:58;2.57;;;1.20;;
46751;SDS011;32497;48.936;9.270;2022-10-31T05:51:34;2.57;;;1.10;;
46751;SDS011;32497;48.936;9.270;2022-10-31T05:56:38;1.60;;;0.90;;
46751;SDS011;32497;48.936;9.270;2022-10-31T06:01:39;2.73;;;1.30;;
46751;SDS011;32497;48.936;9.270;2022-10-31T06:06:50;3.40;;;1.63;;
46751;SDS011;32497;48.936;9.270;2022-10-31T06:11:53;1.17;;;0.90;;
46751;SDS011;32497;48.936;9.270;2022-10-31T06:17:00;2.17;;;1.13;;
46751;SDS011;32497;48.936;9.270;2022-10-31T06:22:27;1.67;;;0.90;;
46751;SDS011;32497;48.936;9.270;2022-10-31T06:27:30;4.50;;;1.30;;
46751;SDS011;32497;48.936;9.270;2022-10-31T06:32:37;2.30;;;1.50;;
46751;SDS011;32497;48.936;9.270;2022-10-31T06:37:38;1.97;;;1.80;;
46751;SDS011;32497;48.936;9.270;2022-10-31T06:42:58;2.27;;;0.90;;
46751;SDS011;32497;48.936;9.270;2022-10-31T06:48:00;8.00;;;1.67;;
46751;SDS011;32497;48.936;9.270;2022-10-31T06:53:03;1.83;;;1.23;;
46751;SDS011;32497;48.936;9.270;2022-10-31T06:58:05;2.40;;;0.93;;
46751;SDS011;32497;48.936;9.270;2022-10-31T07:03:09;3.37;;;1.20;;
46751;SDS011;32497;48.936;9.270;2022-10-31T07:08:12;1.97;;;1.30;;
46751;SDS011;32497;48.936;9.270;2022-10-31T07:13:15;1.53;;;1.00;;
46751;SDS011;32497;48.936;9.270;2022-10-31T07:18:24;3.07;;;1.00;;
46751;SDS011;32497;48.936;9.270;2022-10-31T07:23:26;6.80;;;1.93;;
46751;SDS011;32497;48.936;9.270;2022-10-31T07:29:06;1.30;;;0.90;;
46751;SDS011;32497;48.936;9.270;2022-10-31T07:34:07;1.87;;;0.97;;
46751;SDS011;32497;48.936;9.270;2022-10-31T07:39:08;4.53;;;1.60;;
46751;SDS011;32497;48.936;9.270;2022-10-31T07:44:12;1.87;;;1.30;;
46751;SDS011;32497;48.936;9.270;2022-10-31T07:49:31;2.43;;;1.30;;
46751;SDS011;32497;48.936;9.270;2022-10-31T07:54:51;2.60;;;1.53;;
46751;SDS011;32497;48.936;9.270;2022-10-31T07:59:58;2.07;;;1.50;;
46751;SDS011;32497;48.936;9.270;2022-10-31T08:04:59;2.90;;;1.47;;
46751;SDS011;32497;48.936;9.270;2022-10-31T08:10:04;5.03;;;1.80;;
46751;SDS011;32497;48.936;9.270;2022-10-31T08:15:08;2.90;;;1.17;;
46751;SDS011;32497;48.936;9.270;2022-10-31T08:20:10;2.77;;;1.53;;
46751;SDS011;32497;48.936;9.270;2022-10-31T08:25:18;3.23;;;1.73;;
46751;SDS011;32497;48.936;9.270;2022-10-31T08:30:21;4.77;;;1.60;;
46751;SDS011;32497;48.936;9.270;2022-10-31T08:35:43;3.50;;;1.60;;
46751;SDS011;32497;48.936;9.270;2022-10-31T08:41:05;3.97;;;1.80;;
46751;SDS011;32497;48.936;9.270;2022-10-31T08:46:08;2.85;;;1.55;;
46751;SDS011;32497;48.936;9.270;2022-10-31T08:51:09;2.53;;;1.52;;
46751;SDS011;32497;48.936;9.270;2022-10-31T08:56:11;4.22;;;1.40;;
46751;SDS011;32497;48.936;9.270;2022-10-31T09:01:13;2.85;;;1.58;;
46751;SDS011;32497;48.936;9.270;2022-10-31T09:06:16;4.38;;;1.70;;
46751;SDS011;32497;48.936;9.270;2022-10-31T09:11:17;2.65;;;1.33;;
46751;SDS011;32497;48.936;9.270;2022-10-31T09:16:38;4.63;;;2.05;;
46751;SDS011;32497;48.936;9.270;2022-10-31T09:21:43;2.10;;;1.40;;
46751;SDS011;32497;48.936;9.270;2022-10-31T09:26:44;2.88;;;1.65;;
46751;SDS011;32497;48.936;9.270;2022-10-31T09:31:55;4.45;;;1.85;;
46751;SDS011;32497;48.936;9.270;2022-10-31T09:37:00;3.15;;;1.92;;
46751;SDS011;32497;48.936;9.270;2022-10-31T09:42:17;4.22;;;1.92;;
46751;SDS011;32497;48.936;9.270;2022-10-31T09:47:36;3.60;;;1.65;;
46751;SDS011;32497;48.936;9.270;2022-10-31T09:53:09;3.72;;;1.88;;
46751;SDS011;32497;48.936;9.270;2022-10-31T09:58:14;5.10;;;1.85;;
46751;SDS011;32497;48.936;9.270;2022-10-31T10:03:23;2.42;;;1.40;;
46751;SDS011;32497;48.936;9.270;2022-10-31T10:08:30;2.85;;;1.90;;
46751;SDS011;32497;48.936;9.270;2022-10-31T10:13:36;3.90;;;1.67;;
46751;SDS011;32497;48.936;9.270;2022-10-31T10:18:55;3.28;;;2.05;;
46751;SDS011;32497;48.936;9.270;2022-10-31T10:24:10;8.38;;;1.73;;
46751;SDS011;32497;48.936;9.270;2022-10-31T10:29:25;2.45;;;1.73;;
46751;SDS011;32497;48.936;9.270;2022-10-31T10:34:36;2.70;;;1.50;;
46751;SDS011;32497;48.936;9.270;2022-10-31T10:39:40;7.00;;;2.72;;
46751;SDS011;32497;48.936;9.270;2022-10-31T10:44:45;3.95;;;2.20;;
46751;SDS011;32497;48.936;9.270;2022-10-31T10:49:50;2.90;;;2.00;;
46751;SDS011;32497;48.936;9.270;2022-10-31T10:54:58;5.00;;;2.10;;
46751;SDS011;32497;48.936;9.270;2022-10-31T11:00:11;2.90;;;1.92;;
46751;SDS011;32497;48.936;9.270;2022-10-31T11:05:24;3.50;;;2.00;;
46751;SDS011;32497;48.936;9.270;2022-10-31T11:10:28;5.25;;;2.45;;
46751;SDS011;32497;48.936;9.270;2022-10-31T11:15:31;6.88;;;2.22;;
46751;SDS011;32497;48.936;9.270;2022-10-31T11:20:36;6.22;;;2.55;;
46751;SDS011;32497;48.936;9.270;2022-10-31T11:25:37;6.55;;;2.28;;
46751;SDS011;32497;48.936;9.270;2022-10-31T11:30:42;4.50;;;2.10;;
46751;SDS011;32497;48.936;9.270;2022-10-31T11:35:46;2.80;;;1.90;;
46751;SDS011;32497;48.936;9.270;2022-10-31T11:40:52;5.45;;;2.63;;
46751;SDS011;32497;48.936;9.270;2022-10-31T11:45:56;4.40;;;2.13;;
46751;SDS011;32497;48.936;9.270;2022-10-31T11:50:58;5.30;;;2.15;;
46751;SDS011;32497;48.936;9.270;2022-10-31T11:56:00;4.45;;;2.40;;
46751;SDS011;32497;48.936;9.270;2022-10-31T12:01:08;4.97;;;2.40;;
46751;SDS011;32497;48.936;9.270;2022-10-31T12:06:27;6.00;;;2.33;;
46751;SDS011;32497;48.936;9.270;2022-10-31T12:11:36;5.68;;;2.50;;
46751;SDS011;32497;48.936;9.270;2022-10-31T12:16:47;4.85;;;2.55;;
46751;SDS011;32497;48.936;9.270;2022-10-31T12:22:01;4.03;;;2.50;;
46751;SDS011;32497;48.936;9.270;2022-10-31T12:27:11;5.15;;;2.38;;
46751;SDS011;32497;48.936;9.270;2022-10-31T12:32:23;7.32;;;3.20;;
46751;SDS011;32497;48.936;9.270;2022-10-31T12:37:38;5.80;;;2.53;;
46751;SDS011;32497;48.936;9.270;2022-10-31T12:42:49;8.65;;;2.92;;
46751;SDS011;32497;48.936;9.270;2022-10-31T12:48:03;4.20;;;2.30;;
46751;SDS011;32497;48.936;9.270;2022-10-31T12:53:21;5.65;;;2.60;;
46751;SDS011;32497;48.936;9.270;2022-10-31T12:58:31;6.18;;;2.58;;
46751;SDS011;32497;48.936;9.270;2022-10-31T13:03:37;3.13;;;2.22;;
46751;SDS011;32497;48.936;9.270;2022-10-31T13:08:47;4.13;;;2.38;;
46751;SDS011;32497;48.936;9.270;2022-10-31T13:13:54;3.80;;;2.05;;
46751;SDS011;32497;48.936;9.270;2022-10-31T13:19:02;3.88;;;2.40;;
46751;SDS011;32497;48.936;9.270;2022-10-31T13:24:09;4.43;;;2.70;;
46751;SDS011;32497;48.936;9.270;2022-10-31T13:29:17;4.15;;;2.10;;
46751;SDS011;32497;48.936;9.270;2022-10-31T13:34:24;6.03;;;2.75;;
46751;SDS011;32497;48.936;9.270;2022-10-31T13:39:32;5.80;;;2.92;;
46751;SDS011;32497;48.936;9.270;2022-10-31T13:44:42;5.43;;;2.90;;
46751;SDS011;32497;48.936;9.270;2022-10-31T13:49:43;4.28;;;2.83;;
46751;SDS011;32497;48.936;9.270;2022-10-31T13:54:46;4.03;;;2.63;;
46751;SDS011;32497;48.936;9.270;2022-10-31T13:59:49;5.22;;;2.72;;
46751;SDS011;32497;48.936;9.270;2022-10-31T14:04:54;4.80;;;2.10;;
46751;SDS011;32497;48.936;9.270;2022-10-31T14:10:00;3.65;;;2.22;;
46751;SDS011;32497;48.936;9.270;2022-10-31T14:15:05;6.15;;;2.55;;
46751;SDS011;32497;48.936;9.270;2022-10-31T14:20:24;5.03;;;2.70;;
46751;SDS011;32497;48.936;9.270;2022-10-31T14:25:35;4.97;;;2.40;;
46751;SDS011;32497;48.936;9.270;2022-10-31T14:30:37;3.90;;;2.28;;
46751;SDS011;32497;48.936;9.270;2022-10-31T14:35:44;5.55;;;2.42;;
46751;SDS011;32497;48.936;9.270;2022-10-31T14:41:15;5.60;;;2.38;;
46751;SDS011;32497;48.936;9.270;2022-10-31T14:46:30;4.80;;;2.55;;
46751;SDS011;32497;48.936;9.270;2022-10-31T14:51:42;6.25;;;2.53;;
46751;SDS011;32497;48.936;9.270;2022-10-31T14:56:48;4.43;;;2.40;;
46751;SDS011;32497;48.936;9.270;2022-10-31T15:01:55;4.65;;;2.45;;
46751;SDS011;32497;48.936;9.270;2022-10-31T15:07:00;6.95;;;2.58;;
46751;SDS011;32497;48.936;9.270;2022-10-31T15:17:25;8.85;;;2.28;;
46751;SDS011;32497;48.936;9.270;2022-10-31T15:22:26;6.53;;;2.97;;
46751;SDS011;32497;48.936;9.270;2022-10-31T15:27:31;5.47;;;2.63;;
46751;SDS011;32497;48.936;9.270;2022-10-31T15:32:32;5.38;;;2.58;;
46751;SDS011;32497;48.936;9.270;2022-10-31T15:37:33;8.98;;;2.97;;
46751;SDS011;32497;48.936;9.270;2022-10-31T15:42:39;6.60;;;2.60;;
46751;SDS011;32497;48.936;9.270;2022-10-31T15:47:44;6.10;;;2.80;;
46751;SDS011;32497;48.936;9.270;2022-10-31T15:52:47;4.72;;;2.83;;
46751;SDS011;32497;48.936;9.270;2022-10-31T15:57:50;5.93;;;2.67;;
46751;SDS011;32497;48.936;9.270;2022-10-31T16:03:04;4.03;;;2.35;;
46751;SDS011;32497;48.936;9.270;2022-10-31T16:13:25;5.55;;;2.72;;
46751;SDS011;32497;48.936;9.270;2022-10-31T16:18:29;6.45;;;2.83;;
46751;SDS011;32497;48.936;9.270;2022-10-31T16:23:36;4.40;;;2.42;;
46751;SDS011;32497;48.936;9.270;2022-10-31T16:28:51;3.75;;;2.15;;
46751;SDS011;32497;48.936;9.270;2022-10-31T16:34:01;5.68;;;3.00;;
46751;SDS011;32497;48.936;9.270;2022-10-31T16:39:03;8.98;;;2.15;;
46751;SDS011;32497;48.936;9.270;2022-10-31T16:44:12;34.28;;;12.07;;
46751;SDS011;32497;48.936;9.270;2022-10-31T16:49:17;6.35;;;3.17;;
46751;SDS011;32497;48.936;9.270;2022-10-31T16:54:18;5.15;;;2.85;;
46751;SDS011;32497;48.936;9.270;2022-10-31T16:59:20;6.95;;;2.72;;
46751;SDS011;32497;48.936;9.270;2022-10-31T17:04:21;6.57;;;3.00;;
46751;SDS011;32497;48.936;9.270;2022-10-31T17:09:22;5.80;;;3.07;;
46751;SDS011;32497;48.936;9.270;2022-10-31T17:14:25;4.65;;;2.70;;
46751;SDS011;32497;48.936;9.270;2022-10-31T17:19:26;6.65;;;3.25;;
46751;SDS011;32497;48.936;9.270;2022-10-31T17:24:27;5.67;;;3.43;;
46751;SDS011;32497;48.936;9.270;2022-10-31T17:29:30;6.15;;;3.17;;
46751;SDS011;32497;48.936;9.270;2022-10-31T17:34:31;7.07;;;3.00;;
46751;SDS011;32497;48.936;9.270;2022-10-31T17:39:32;5.78;;;2.70;;
46751;SDS011;32497;48.936;9.270;2022-10-31T17:44:34;6.35;;;2.80;;
46751;SDS011;32497;48.936;9.270;2022-10-31T17:49:35;7.13;;;4.00;;
46751;SDS011;32497;48.936;9.270;2022-10-31T17:54:36;8.05;;;4.43;;
46751;SDS011;32497;48.936;9.270;2022-10-31T17:59:38;15.30;;;4.35;;
46751;SDS011;32497;48.936;9.270;2022-10-31T18:04:40;7.40;;;3.45;;
46751;SDS011;32497;48.936;9.270;2022-10-31T18:09:41;4.50;;;3.08;;
46751;SDS011;32497;48.936;9.270;2022-10-31T18:14:43;7.38;;;3.13;;
46751;SDS011;32497;48.936;9.270;2022-10-31T18:19:44;9.18;;;3.55;;
46751;SDS011;32497;48.936;9.270;2022-10-31T18:24:45;7.00;;;3.78;;
46751;SDS011;32497;48.936;9.270;2022-10-31T18:29:48;5.53;;;2.90;;
46751;SDS011;32497;48.936;9.270;2022-10-31T18:34:49;5.60;;;4.00;;
46751;SDS011;32497;48.936;9.270;2022-10-31T18:39:50;8.20;;;2.73;;
46751;SDS011;32497;48.936;9.270;2022-10-31T18:44:52;7.40;;;3.63;;
46751;SDS011;32497;48.936;9.270;2022-10-31T18:49:53;7.37;;;3.40;;
46751;SDS011;32497;48.936;9.270;2022-10-31T18:54:54;3.28;;;2.58;;
46751;SDS011;32497;48.936;9.270;2022-10-31T19:00:00;7.40;;;3.83;;
46751;SDS011;32497;48.936;9.270;2022-10-31T19:05:02;8.07;;;3.73;;
46751;SDS011;32497;48.936;9.270;2022-10-31T19:10:06;7.87;;;3.30;;
46751;SDS011;32497;48.936;9.270;2022-10-31T19:15:09;6.47;;;2.87;;
46751;SDS011;32497;48.936;9.270;2022-10-31T19:20:10;9.30;;;3.40;;
46751;SDS011;32497;48.936;9.270;2022-10-31T19:25:12;7.20;;;3.53;;
46751;SDS011;32497;48.936;9.270;2022-10-31T19:30:14;5.70;;;3.50;;
46751;SDS011;32497;48.936;9.270;2022-10-31T19:35:15;7.93;;;3.60;;
46751;SDS011;32497;48.936;9.270;2022-10-31T19:40:17;7.40;;;3.90;;
46751;SDS011;32497;48.936;9.270;2022-10-31T19:45:19;11.30;;;4.03;;
46751;SDS011;32497;48.936;9.270;2022-10-31T19:50:20;8.30;;;4.13;;
46751;SDS011;32497;48.936;9.270;2022-10-31T19:55:21;7.53;;;3.53;;
46751;SDS011;32497;48.936;9.270;2022-10-31T20:00:24;6.00;;;3.57;;
46751;SDS011;32497;48.936;9.270;2022-10-31T20:05:25;7.57;;;3.90;;
46751;SDS011;32497;48.936;9.270;2022-10-31T20:10:26;6.90;;;3.97;;
46751;SDS011;32497;48.936;9.270;2022-10-31T20:15:28;8.90;;;3.83;;
46751;SDS011;32497;48.936;9.270;2022-10-31T20:20:30;7.97;;;3.73;;
46751;SDS011;32497;48.936;9.270;2022-10-31T20:25:31;11.23;;;4.27;;
46751;SDS011;32497;48.936;9.270;2022-10-31T20:30:35;7.10;;;3.67;;
46751;SDS011;32497;48.936;9.270;2022-10-31T20:35:36;5.27;;;3.20;;
46751;SDS011;32497;48.936;9.270;2022-10-31T20:40:38;8.27;;;3.43;;
46751;SDS011;32497;48.936;9.270;2022-10-31T20:45:40;6.73;;;4.20;;
46751;SDS011;32497;48.936;9.270;2022-10-31T20:50:41;9.30;;;3.37;;
46751;SDS011;32497;48.936;9.270;2022-10-31T20:55:42;7.60;;;3.28;;
46751;SDS011;32497;48.936;9.270;2022-10-31T21:00:45;6.50;;;3.33;;
46751;SDS011;32497;48.936;9.270;2022-10-31T21:05:50;6.60;;;3.40;;
46751;SDS011;32497;48.936;9.270;2022-10-31T21:10:52;5.53;;;3.27;;
46751;SDS011;32497;48.936;9.270;2022-10-31T21:16:02;7.17;;;3.50;;
46751;SDS011;32497;48.936;9.270;2022-10-31T21:21:06;7.33;;;3.23;;
46751;SDS011;32497;48.936;9.270;2022-10-31T21:26:10;7.67;;;3.87;;
46751;SDS011;32497;48.936;9.270;2022-10-31T21:31:15;5.93;;;3.53;;
46751;SDS011;32497;48.936;9.270;2022-10-31T21:36:17;7.23;;;3.83;;
46751;SDS011;32497;48.936;9.270;2022-10-31T21:41:18;7.63;;;4.27;;
46751;SDS011;32497;48.936;9.270;2022-10-31T21:46:21;7.47;;;4.07;;
46751;SDS011;32497;48.936;9.270;2022-10-31T21:51:24;6.53;;;3.70;;
46751;SDS011;32497;48.936;9.270;2022-10-31T21:56:28;6.77;;;3.50;;
46751;SDS011;32497;48.936;9.270;2022-10-31T22:01:30;10.67;;;3.63;;
46751;SDS011;32497;48.936;9.270;2022-10-31T22:06:32;4.73;;;3.13;;
46751;SDS011;32497;48.936;9.270;2022-10-31T22:11:34;6.20;;;3.60;;
46751;SDS011;32497;48.936;9.270;2022-10-31T22:16:37;10.20;;;4.20;;
46751;SDS011;32497;48.936;9.270;2022-10-31T22:21:39;7.00;;;3.73;;
46751;SDS011;32497;48.936;9.270;2022-10-31T22:26:42;9.60;;;3.83;;
46751;SDS011;32497;48.936;9.270;2022-10-31T22:31:45;10.53;;;3.40;;
46751;SDS011;32497;48.936;9.270;2022-10-31T22:36:47;7.60;;;3.73;;
46751;SDS011;32497;48.936;9.270;2022-10-31T22:41:48;4.97;;;2.70;;
46751;SDS011;32497;48.936;9.270;2022-10-31T22:46:50;4.50;;;2.80;;
46751;SDS011;32497;48.936;9.270;2022-10-31T22:51:51;5.33;;;3.33;;
46751;SDS011;32497;48.936;9.270;2022-10-31T22:56:52;6.23;;;3.07;;
46751;SDS011;32497;48.936;9.270;2022-10-31T23:01:55;5.87;;;3.23;;
46751;SDS011;32497;48.936;9.270;2022-10-31T23:06:56;8.00;;;3.20;;
46751;SDS011;32497;48.936;9.270;2022-10-31T23:11:57;4.80;;;3.03;;
46751;SDS011;32497;48.936;9.270;2022-10-31T23:17:00;6.13;;;3.17;;
46751;SDS011;32497;48.936;9.270;2022-10-31T23:22:01;7.33;;;3.10;;
46751;SDS011;32497;48.936;9.270;2022-10-31T23:27:03;7.50;;;3.20;;
46751;SDS011;32497;48.936;9.270;2022-10-31T23:32:08;5.57;;;2.93;;
46751;SDS011;32497;48.936;9.270;2022-10-31T23:37:10;6.93;;;3.23;;
46751;SDS011;32497;48.936;9.270;2022-10-31T23:42:12;8.80;;;2.90;;
46751;SDS011;32497;48.936;9.270;2022-10-31T23:47:15;10.53;;;3.17;;
46751;SDS011;32497;48.936;9.270;2022-10-31T23:52:17;7.90;;;2.73;;
46751;SDS011;32497;48.936;9.270;2022-10-31T23:57:18;10.30;;;3.07;;
